Mount Vernon, WA (98273)

3:41 PM PST on December 08, 2016 (GMT -0800)
18th St / Fir | | Change Station
Active Advisory: Winter Weather Advisory

Elev 157 ft 48.43 °N, 122.32 °W | Updated 19 seconds ago

Partly Cloudy
Partly Cloudy
35.8 °F
Feels Like 36 °F
N
0.0
Wind Variable Wind from SE
Gusts 0.0 mph

Today
High -- | Low -- °F
--% Chance of Precip.
Yesterday
High -- | Low -- °F
Precip. -- in
Pressure 30.03 in
Visibility 10.0 miles
Clouds Scattered Clouds 12000 ft
Mostly Cloudy 18000 ft
Overcast 22000 ft
Windchill 36 °F
Dew Point 13 °F
Humidity 38%
Rainfall 0.00 in
Snow Depth Not available.
7:48 AM 4:14 PM
Waxing Gibbous, 68% visible
METAR KNUW 082256Z 04007KT 10SM SCT120 BKN180 OVC220 03/M11 A3003 RMK AO2 SLP169 T00331106 $
Pressure 30.03 in
Visibility 10.0 miles
Clouds Scattered Clouds 12000 ft
Mostly Cloudy 18000 ft
Overcast 22000 ft
Windchill 36 °F
Dew Point 13 °F
Humidity 38%
Rainfall 0.00 in
Snow Depth Not available.
7:48 AM 4:14 PM
Waxing Gibbous, 68% visible
METAR KNUW 082256Z 04007KT 10SM SCT120 BKN180 OVC220 03/M11 A3003 RMK AO2 SLP169 T00331106 $

10-Day Weather Forecast

Almanac

Astronomy

Dec. 08, 2016 Rise Set
Actual Time
Civil Twilight
Nautical Twilight
Astronomical Twilight
Moon
Length of Visible Light
Length of Day
Tomorrow will be .
, % of the Moon is Illuminated

Today's Extremes

State Highs State Lows

Community

WunderPhotos

Upload Photos

1,956,277 photos uploaded!

WunderBlog® & News

Nearby

Air Quality

  Air Quality AQ Index Pollutant
Not available.

Snow Depth

Station Depth Elevation

Earthquake Activity

City Distance Mag. Time & Date
Minimum magnitude displayed is 2.5.

Coastal Water Temperatures

Place Temperature

Stations

Nearby Weather Stations

Station Location Temp. Windchill Dew Point Humidity Wind Precip. Elev Updated Type
                   

Watches & Warnings

Winter Weather Advisory
Issued: 12:25 PM PST Dec. 8, 2016 – National Weather Service

... Winter Weather Advisory remains in effect from 4 PM this
afternoon to 8 am PST Friday...

* timing... a weather system will move from south to north over
western Washington tonight. With cold air in place...
precipitation will start as snow tonight before changing to rain
by daybreak Friday.

* Accumulation... snowfall accumulations of 1 to 3 inches are
expected across most of The Lowlands.

* Main impact... travel will affected as roadway surface conditions
may become slippery.

Precautionary/preparedness actions...

People planning on travel late Thursday afternoon and night should
expect winter driving conditions.